createdAt,value
2023-03-27T00:00:00.851Z,992.80
2023-03-27T00:00:11.061Z,992.77
2023-03-27T00:00:21.291Z,992.78
2023-03-27T00:00:31.524Z,992.79
2023-03-27T00:00:41.769Z,992.78
2023-03-27T00:00:52.007Z,992.80
2023-03-27T00:01:02.240Z,992.79
2023-03-27T00:01:12.479Z,992.81
2023-03-27T00:01:22.730Z,992.81
2023-03-27T00:01:32.968Z,992.84
2023-03-27T00:01:43.214Z,992.81
2023-03-27T00:01:53.475Z,992.83
2023-03-27T00:02:03.776Z,992.83
2023-03-27T00:02:14.044Z,992.86
2023-03-27T00:02:24.319Z,992.81
2023-03-27T00:02:34.651Z,992.86
2023-03-27T00:02:44.957Z,992.85
2023-03-27T00:02:55.241Z,992.84
2023-03-27T00:03:05.606Z,992.84
2023-03-27T00:03:15.983Z,992.86
2023-03-27T00:03:26.327Z,992.86
2023-03-27T00:03:36.607Z,992.87
2023-03-27T00:03:46.937Z,992.87
2023-03-27T00:03:57.192Z,992.90
2023-03-27T00:04:07.468Z,992.86
2023-03-27T00:04:18.766Z,992.87
2023-03-27T00:04:28.052Z,992.88
2023-03-27T00:04:38.268Z,992.87
2023-03-27T00:04:48.491Z,992.89
2023-03-27T00:04:58.728Z,992.91
2023-03-27T00:05:08.958Z,992.88
2023-03-27T00:05:19.195Z,992.90
2023-03-27T00:05:29.426Z,992.92
2023-03-27T00:05:39.661Z,992.88
2023-03-27T00:05:49.898Z,992.90
2023-03-27T00:06:00.166Z,992.93
2023-03-27T00:06:10.366Z,992.92
2023-03-27T00:06:20.624Z,992.92
2023-03-27T00:06:30.840Z,992.91
2023-03-27T00:06:41.073Z,992.94
2023-03-27T00:06:51.375Z,992.92
2023-03-27T00:07:01.615Z,992.94
2023-03-27T00:07:11.850Z,992.97
2023-03-27T00:07:22.081Z,992.96
2023-03-27T00:07:32.321Z,992.95
2023-03-27T00:07:42.550Z,992.99
2023-03-27T00:07:52.787Z,992.94
2023-03-27T00:08:03.021Z,992.98
2023-03-27T00:08:13.285Z,992.98
2023-03-27T00:08:23.493Z,992.99
2023-03-27T00:08:33.727Z,992.99
2023-03-27T00:08:43.979Z,993.01
2023-03-27T00:08:54.207Z,993.02
2023-03-27T00:09:04.463Z,993.04
2023-03-27T00:09:14.679Z,993.04
2023-03-27T00:09:24.917Z,993.02
2023-03-27T00:09:35.148Z,993.05
2023-03-27T00:09:45.380Z,993.04
2023-03-27T00:09:55.611Z,993.08
2023-03-27T00:10:05.844Z,993.07
2023-03-27T00:10:16.083Z,993.06
2023-03-27T00:10:26.313Z,993.07
2023-03-27T00:10:36.551Z,993.06
2023-03-27T00:10:46.794Z,993.08
2023-03-27T00:10:57.270Z,993.09
2023-03-27T00:11:07.246Z,993.10
2023-03-27T00:11:17.490Z,993.08
2023-03-27T00:11:27.759Z,993.09
2023-03-27T00:11:37.980Z,993.11
2023-03-27T00:11:48.213Z,993.08
2023-03-27T00:11:58.449Z,993.10
2023-03-27T00:12:08.678Z,993.11
2023-03-27T00:12:18.911Z,993.11
2023-03-27T00:12:29.148Z,993.10
2023-03-27T00:12:39.407Z,993.11
2023-03-27T00:12:49.633Z,993.13
2023-03-27T00:12:59.886Z,993.13
2023-03-27T00:13:10.151Z,993.14
2023-03-27T00:13:20.387Z,993.13
2023-03-27T00:13:30.615Z,993.13
2023-03-27T00:13:48.905Z,993.14
2023-03-27T00:13:52.257Z,993.11
2023-03-27T00:14:01.651Z,993.15
2023-03-27T00:14:11.884Z,993.16
2023-03-27T00:14:22.118Z,993.14
2023-03-27T00:14:32.349Z,993.17
2023-03-27T00:14:42.584Z,993.17
2023-03-27T00:14:52.824Z,993.19
2023-03-27T00:15:03.077Z,993.19
2023-03-27T00:15:13.292Z,993.17
2023-03-27T00:15:23.530Z,993.17
2023-03-27T00:15:33.760Z,993.19
2023-03-27T00:15:43.998Z,993.20
2023-03-27T00:15:54.240Z,993.21
2023-03-27T00:16:04.471Z,993.22
2023-03-27T00:16:14.741Z,993.22
2023-03-27T00:16:25.024Z,993.21
2023-03-27T00:16:35.340Z,993.22
2023-03-27T00:16:45.603Z,993.24
2023-03-27T00:16:55.860Z,993.23
2023-03-27T00:17:06.090Z,993.25
2023-03-27T00:17:16.306Z,993.25
2023-03-27T00:17:26.549Z,993.24
2023-03-27T00:17:36.821Z,993.26
2023-03-27T00:17:47.109Z,993.24
2023-03-27T00:17:57.331Z,993.27
2023-03-27T00:18:07.584Z,993.26
2023-03-27T00:18:17.809Z,993.26
2023-03-27T00:18:28.051Z,993.25
2023-03-27T00:18:38.275Z,993.26
2023-03-27T00:18:48.539Z,993.28
2023-03-27T00:18:58.853Z,993.28
2023-03-27T00:19:09.102Z,993.28
2023-03-27T00:19:19.326Z,993.28
2023-03-27T00:19:29.576Z,993.30
2023-03-27T00:19:39.797Z,993.29
2023-03-27T00:19:50.034Z,993.29
2023-03-27T00:20:00.266Z,993.30
2023-03-27T00:20:10.504Z,993.30
2023-03-27T00:20:20.742Z,993.31
2023-03-27T00:20:30.981Z,993.32
2023-03-27T00:20:41.210Z,993.31
2023-03-27T00:20:51.448Z,993.31
2023-03-27T00:21:01.686Z,993.32
2023-03-27T00:21:11.922Z,993.33
2023-03-27T00:21:22.155Z,993.33
2023-03-27T00:21:32.389Z,993.33
2023-03-27T00:21:42.632Z,993.34
2023-03-27T00:21:52.865Z,993.32
2023-03-27T00:22:03.104Z,993.33
2023-03-27T00:22:13.336Z,993.35
2023-03-27T00:22:23.573Z,993.32
2023-03-27T00:22:33.818Z,993.34
2023-03-27T00:22:44.042Z,993.35
2023-03-27T00:22:54.279Z,993.36
2023-03-27T00:23:04.512Z,993.35
2023-03-27T00:23:14.761Z,993.36
2023-03-27T00:23:25.019Z,993.34
2023-03-27T00:23:35.236Z,993.36
2023-03-27T00:23:45.449Z,993.38
2023-03-27T00:23:55.687Z,993.37
2023-03-27T00:24:05.949Z,993.38
2023-03-27T00:24:16.203Z,993.39
2023-03-27T00:24:26.419Z,993.37
2023-03-27T00:24:36.655Z,993.40
2023-03-27T00:24:46.889Z,993.40
2023-03-27T00:24:57.135Z,993.39
2023-03-27T00:25:07.364Z,993.39
2023-03-27T00:25:17.595Z,993.40
2023-03-27T00:25:27.837Z,993.40
2023-03-27T00:25:38.072Z,993.41
2023-03-27T00:25:48.309Z,993.42
2023-03-27T00:25:58.539Z,993.43
2023-03-27T00:26:08.771Z,993.43
2023-03-27T00:26:19.012Z,993.41
2023-03-27T00:26:29.241Z,993.40
2023-03-27T00:26:39.480Z,993.43
2023-03-27T00:26:49.715Z,993.43
2023-03-27T00:26:59.948Z,993.43
2023-03-27T00:27:10.187Z,993.43
2023-03-27T00:27:20.432Z,993.43
2023-03-27T00:27:30.661Z,993.42
2023-03-27T00:27:40.894Z,993.43
2023-03-27T00:27:51.141Z,993.43
2023-03-27T00:28:01.365Z,993.43
2023-03-27T00:28:11.605Z,993.45
2023-03-27T00:28:21.844Z,993.44
2023-03-27T00:28:32.076Z,993.45
2023-03-27T00:28:42.306Z,993.45
2023-03-27T00:28:52.572Z,993.45
2023-03-27T00:29:02.813Z,993.44
2023-03-27T00:29:13.036Z,993.45
2023-03-27T00:29:23.271Z,993.47
2023-03-27T00:29:33.499Z,993.46
2023-03-27T00:29:43.730Z,993.47
2023-03-27T00:29:53.993Z,993.47
2023-03-27T00:30:04.201Z,993.46
2023-03-27T00:30:14.445Z,993.47
2023-03-27T00:30:24.676Z,993.48
2023-03-27T00:30:34.928Z,993.47
2023-03-27T00:30:45.176Z,993.48
2023-03-27T00:30:55.702Z,993.48
2023-03-27T00:31:05.754Z,993.47
2023-03-27T00:31:16.029Z,993.48
2023-03-27T00:31:26.336Z,993.49
2023-03-27T00:31:36.588Z,993.50
2023-03-27T00:31:46.821Z,993.51
2023-03-27T00:31:57.049Z,993.50
2023-03-27T00:32:07.298Z,993.48
2023-03-27T00:32:17.540Z,993.51
2023-03-27T00:32:27.788Z,993.52
2023-03-27T00:32:38.039Z,993.51
2023-03-27T00:32:48.265Z,993.52
2023-03-27T00:32:58.530Z,993.52
2023-03-27T00:33:08.784Z,993.52
2023-03-27T00:33:19.022Z,993.52
2023-03-27T00:33:29.262Z,993.52
2023-03-27T00:33:39.489Z,993.52
2023-03-27T00:33:49.745Z,993.54
2023-03-27T00:33:59.962Z,993.53
2023-03-27T00:34:10.208Z,993.53
2023-03-27T00:34:20.447Z,993.55
2023-03-27T00:34:30.676Z,993.54
2023-03-27T00:34:40.910Z,993.55
2023-03-27T00:34:51.147Z,993.55
2023-03-27T00:35:01.379Z,993.55
2023-03-27T00:35:11.612Z,993.55
2023-03-27T00:35:21.879Z,993.55
2023-03-27T00:35:32.111Z,993.55
2023-03-27T00:35:42.372Z,993.56
2023-03-27T00:35:53.380Z,993.56
2023-03-27T00:36:02.860Z,993.56
2023-03-27T00:36:13.127Z,993.56
2023-03-27T00:36:23.352Z,993.57
2023-03-27T00:36:33.590Z,993.57
2023-03-27T00:36:43.862Z,993.57
2023-03-27T00:36:54.065Z,993.57
2023-03-27T00:37:04.304Z,993.58
2023-03-27T00:37:14.527Z,993.58
2023-03-27T00:37:24.766Z,993.57
2023-03-27T00:37:34.998Z,993.58
2023-03-27T00:37:45.238Z,993.57
2023-03-27T00:37:55.473Z,993.58
2023-03-27T00:38:05.719Z,993.59
2023-03-27T00:38:15.943Z,993.58
2023-03-27T00:38:26.182Z,993.59
2023-03-27T00:38:36.443Z,993.59
2023-03-27T00:38:46.667Z,993.59
2023-03-27T00:38:56.911Z,993.59
2023-03-27T00:39:07.170Z,993.60
2023-03-27T00:39:17.395Z,993.62
2023-03-27T00:39:27.632Z,993.60
2023-03-27T00:39:37.868Z,993.60
2023-03-27T00:39:48.113Z,993.61
2023-03-27T00:39:58.335Z,993.60
2023-03-27T00:40:08.573Z,993.60
2023-03-27T00:40:18.822Z,993.62
2023-03-27T00:40:29.053Z,993.62
2023-03-27T00:40:39.383Z,993.63
2023-03-27T00:40:49.693Z,993.63
2023-03-27T00:41:00.169Z,993.63
2023-03-27T00:41:10.356Z,993.63
2023-03-27T00:41:20.610Z,993.64
2023-03-27T00:41:30.817Z,993.65
2023-03-27T00:41:41.062Z,993.64
2023-03-27T00:41:51.316Z,993.65
2023-03-27T00:42:01.562Z,993.65
2023-03-27T00:42:11.789Z,993.64
2023-03-27T00:42:22.041Z,993.65
2023-03-27T00:42:32.276Z,993.65
2023-03-27T00:42:42.509Z,993.65
2023-03-27T00:42:52.754Z,993.66
2023-03-27T00:43:02.986Z,993.65
2023-03-27T00:43:13.237Z,993.66
2023-03-27T00:43:23.483Z,993.66
2023-03-27T00:43:33.763Z,993.66
2023-03-27T00:43:44.226Z,993.67
2023-03-27T00:43:54.307Z,993.66
2023-03-27T00:44:04.543Z,993.66
2023-03-27T00:44:14.772Z,993.66
2023-03-27T00:44:24.993Z,993.67
2023-03-27T00:44:35.767Z,993.66
2023-03-27T00:44:45.510Z,993.67
2023-03-27T00:44:55.749Z,993.68
2023-03-27T00:45:05.982Z,993.65
2023-03-27T00:45:16.227Z,993.66
2023-03-27T00:45:26.452Z,993.67
2023-03-27T00:45:36.699Z,993.66
2023-03-27T00:45:46.927Z,993.67
2023-03-27T00:45:57.179Z,993.67
2023-03-27T00:46:07.452Z,993.66
2023-03-27T00:46:17.679Z,993.66
2023-03-27T00:46:27.990Z,993.66
2023-03-27T00:46:38.339Z,993.67
2023-03-27T00:46:48.631Z,993.66
2023-03-27T00:46:58.843Z,993.66
2023-03-27T00:47:09.076Z,993.66
2023-03-27T00:47:19.311Z,993.66
2023-03-27T00:47:29.607Z,993.66
2023-03-27T00:47:39.881Z,993.66
2023-03-27T00:47:50.120Z,993.65
2023-03-27T00:48:00.344Z,993.66
2023-03-27T00:48:10.553Z,993.66
2023-03-27T00:48:20.801Z,993.66
2023-03-27T00:48:31.031Z,993.65
2023-03-27T00:48:41.269Z,993.66
2023-03-27T00:48:51.515Z,993.66
2023-03-27T00:49:01.744Z,993.68
2023-03-27T00:49:11.990Z,993.66
2023-03-27T00:49:22.228Z,993.65
2023-03-27T00:49:32.465Z,993.66
2023-03-27T00:49:42.703Z,993.66
2023-03-27T00:49:52.935Z,993.67
2023-03-27T00:50:03.168Z,993.68
2023-03-27T00:50:13.631Z,993.66
2023-03-27T00:50:23.655Z,993.67
2023-03-27T00:50:33.896Z,993.67
2023-03-27T00:50:44.123Z,993.68
2023-03-27T00:50:54.498Z,993.68
2023-03-27T00:51:04.625Z,993.69
2023-03-27T00:51:14.859Z,993.70
2023-03-27T00:51:25.104Z,993.70
2023-03-27T00:51:35.338Z,993.71
2023-03-27T00:51:45.562Z,993.70
2023-03-27T00:51:55.802Z,993.70
2023-03-27T00:52:06.054Z,993.71
2023-03-27T00:52:16.293Z,993.70
2023-03-27T00:52:26.510Z,993.71
2023-03-27T00:52:36.744Z,993.71
2023-03-27T00:52:46.981Z,993.71
2023-03-27T00:52:57.218Z,993.73
2023-03-27T00:53:07.460Z,993.72
2023-03-27T00:53:17.698Z,993.72
2023-03-27T00:53:27.930Z,993.74
2023-03-27T00:53:38.164Z,993.74
2023-03-27T00:53:48.421Z,993.75
2023-03-27T00:53:58.673Z,993.75
2023-03-27T00:54:08.902Z,993.75
2023-03-27T00:54:19.133Z,993.76
2023-03-27T00:54:29.365Z,993.76
2023-03-27T00:54:39.605Z,993.76
2023-03-27T00:54:49.850Z,993.77
2023-03-27T00:55:00.111Z,993.76
2023-03-27T00:55:10.330Z,993.77
2023-03-27T00:55:20.596Z,993.77
2023-03-27T00:55:30.840Z,993.77
2023-03-27T00:55:41.068Z,993.76
2023-03-27T00:55:51.304Z,993.77
2023-03-27T00:56:01.541Z,993.77
2023-03-27T00:56:12.649Z,993.77
2023-03-27T00:56:22.023Z,993.78
2023-03-27T00:56:32.286Z,993.78
2023-03-27T00:56:42.529Z,993.78
2023-03-27T00:56:52.775Z,993.79
2023-03-27T00:57:03.052Z,993.79
2023-03-27T00:57:13.376Z,993.79
2023-03-27T00:57:23.618Z,993.79
2023-03-27T00:57:33.851Z,993.80
2023-03-27T00:57:44.086Z,993.80
2023-03-27T00:57:54.348Z,993.80
2023-03-27T00:58:04.562Z,993.81
2023-03-27T00:58:14.803Z,993.81
2023-03-27T00:58:25.031Z,993.80
2023-03-27T00:58:35.267Z,993.80
2023-03-27T00:58:45.503Z,993.80
2023-03-27T00:58:55.738Z,993.81
2023-03-27T00:59:05.987Z,993.81
2023-03-27T00:59:16.225Z,993.82
2023-03-27T00:59:26.450Z,993.82
2023-03-27T00:59:36.686Z,993.81
2023-03-27T00:59:46.919Z,993.82
2023-03-27T00:59:57.169Z,993.83
2023-03-27T01:00:09.403Z,993.83
2023-03-27T01:00:17.618Z,993.83
2023-03-27T01:00:28.669Z,993.83
2023-03-27T01:00:38.261Z,993.83
2023-03-27T01:00:48.497Z,993.82
2023-03-27T01:00:59.024Z,993.83
2023-03-27T01:01:09.117Z,993.83
2023-03-27T01:01:19.257Z,993.84
2023-03-27T01:01:29.517Z,993.85
2023-03-27T01:01:39.751Z,993.84
2023-03-27T01:01:50.022Z,993.85
2023-03-27T01:02:00.272Z,993.85
2023-03-27T01:02:10.528Z,993.87
2023-03-27T01:02:20.775Z,993.85
2023-03-27T01:02:31.087Z,993.86
2023-03-27T01:02:41.424Z,993.86
2023-03-27T01:02:51.819Z,993.87
2023-03-27T01:03:02.138Z,993.87
2023-03-27T01:03:12.469Z,993.87
2023-03-27T01:03:22.838Z,993.86
2023-03-27T01:03:33.160Z,993.87
2023-03-27T01:03:43.493Z,993.89
2023-03-27T01:03:53.857Z,993.86
2023-03-27T01:04:04.014Z,993.87
2023-03-27T01:04:14.273Z,993.87
2023-03-27T01:04:24.511Z,993.88
2023-03-27T01:04:34.739Z,993.88
2023-03-27T01:04:44.988Z,993.88
2023-03-27T01:04:55.217Z,993.87
2023-03-27T01:05:05.449Z,993.87
2023-03-27T01:05:17.324Z,993.86
2023-03-27T01:05:25.907Z,993.86
2023-03-27T01:05:36.144Z,993.87
2023-03-27T01:05:46.379Z,993.87
2023-03-27T01:05:56.612Z,993.86
2023-03-27T01:06:06.856Z,993.86
2023-03-27T01:06:27.471Z,993.86
2023-03-27T01:06:37.705Z,993.86
2023-03-27T01:06:47.947Z,993.86
2023-03-27T01:06:58.191Z,993.86
2023-03-27T01:07:08.429Z,993.85
2023-03-27T01:07:18.666Z,993.86
2023-03-27T01:07:28.891Z,993.87
2023-03-27T01:07:39.119Z,993.87
2023-03-27T01:08:01.412Z,993.86
2023-03-27T01:08:01.922Z,993.86
2023-03-27T01:08:10.310Z,993.86
2023-03-27T01:08:20.535Z,993.87
2023-03-27T01:08:30.774Z,993.86
2023-03-27T01:08:41.026Z,993.87
2023-03-27T01:08:51.275Z,993.87
2023-03-27T01:09:01.487Z,993.87
2023-03-27T01:09:20.512Z,993.87
2023-03-27T01:09:22.948Z,993.89
2023-03-27T01:09:32.711Z,993.88
2023-03-27T01:09:42.737Z,993.88
2023-03-27T01:09:52.978Z,993.88
2023-03-27T01:10:03.244Z,993.89
2023-03-27T01:10:13.472Z,993.87
2023-03-27T01:10:23.707Z,993.89
2023-03-27T01:10:33.946Z,993.90
2023-03-27T01:10:44.201Z,993.90
2023-03-27T01:10:54.917Z,993.90
2023-03-27T01:11:04.836Z,993.90
2023-03-27T01:11:15.086Z,993.90
2023-03-27T01:11:25.312Z,993.90
2023-03-27T01:11:35.548Z,993.90
2023-03-27T01:11:45.788Z,993.90
2023-03-27T01:11:56.038Z,993.90
2023-03-27T01:12:06.265Z,993.91
2023-03-27T01:12:16.495Z,993.91
2023-03-27T01:12:26.757Z,993.90
2023-03-27T01:12:36.967Z,993.91
2023-03-27T01:12:47.194Z,993.92
2023-03-27T01:12:57.432Z,993.91
2023-03-27T01:13:07.665Z,993.92
2023-03-27T01:13:17.903Z,993.92
2023-03-27T01:13:28.137Z,993.92
2023-03-27T01:13:38.378Z,993.92
2023-03-27T01:13:48.609Z,993.92
2023-03-27T01:13:58.850Z,993.93
2023-03-27T01:14:09.100Z,993.93
2023-03-27T01:14:19.337Z,993.93
2023-03-27T01:14:29.563Z,993.93
2023-03-27T01:14:40.725Z,993.94
2023-03-27T01:14:50.099Z,993.94
2023-03-27T01:15:00.333Z,993.96
2023-03-27T01:15:10.575Z,993.95
2023-03-27T01:15:20.806Z,993.96
2023-03-27T01:15:31.086Z,993.98
2023-03-27T01:15:41.360Z,993.97
2023-03-27T01:15:51.561Z,993.97
2023-03-27T01:16:01.852Z,993.98
2023-03-27T01:16:12.074Z,993.99
2023-03-27T01:16:22.468Z,994.00
2023-03-27T01:16:32.718Z,993.99
2023-03-27T01:16:42.952Z,994.01
2023-03-27T01:16:53.196Z,994.01
2023-03-27T01:17:03.426Z,994.01
2023-03-27T01:17:13.653Z,994.01
2023-03-27T01:17:23.952Z,994.03
2023-03-27T01:17:34.259Z,994.03
2023-03-27T01:17:44.543Z,994.04
2023-03-27T01:17:54.777Z,994.04
2023-03-27T01:18:05.034Z,994.03
2023-03-27T01:18:15.237Z,994.04
2023-03-27T01:18:25.474Z,994.05
2023-03-27T01:18:35.713Z,994.06
2023-03-27T01:18:45.942Z,994.05
2023-03-27T01:18:57.241Z,994.05
2023-03-27T01:19:06.412Z,994.05
2023-03-27T01:19:16.651Z,994.05
2023-03-27T01:19:26.884Z,994.05
2023-03-27T01:19:37.121Z,994.07
2023-03-27T01:19:47.355Z,994.07
2023-03-27T01:19:57.591Z,994.06
2023-03-27T01:20:07.827Z,994.07
2023-03-27T01:20:18.095Z,994.08
2023-03-27T01:20:28.299Z,994.07
2023-03-27T01:20:38.534Z,994.08
2023-03-27T01:20:48.767Z,994.08
2023-03-27T01:20:59.960Z,994.08
2023-03-27T01:21:09.366Z,994.09
2023-03-27T01:21:19.611Z,994.10
2023-03-27T01:21:29.846Z,994.10
2023-03-27T01:21:40.068Z,994.11
2023-03-27T01:21:50.300Z,994.10
2023-03-27T01:22:00.548Z,994.11
2023-03-27T01:22:10.773Z,994.12
2023-03-27T01:22:21.018Z,994.12
2023-03-27T01:22:31.276Z,994.12
2023-03-27T01:22:41.510Z,994.12
2023-03-27T01:22:51.733Z,994.13
2023-03-27T01:23:01.972Z,994.14
2023-03-27T01:23:12.202Z,994.15
2023-03-27T01:23:35.727Z,994.15
2023-03-27T01:23:35.790Z,994.14
2023-03-27T01:23:59.567Z,994.16
2023-03-27T01:24:00.032Z,994.16
2023-03-27T01:24:04.896Z,994.15
2023-03-27T01:24:14.268Z,994.16
2023-03-27T01:24:24.506Z,994.17
2023-03-27T01:24:34.736Z,994.17
2023-03-27T01:24:44.976Z,994.16
2023-03-27T01:24:55.210Z,994.17
2023-03-27T01:25:05.448Z,994.16
2023-03-27T01:25:15.683Z,994.16
2023-03-27T01:25:25.926Z,994.16
2023-03-27T01:25:36.155Z,994.16
2023-03-27T01:25:46.395Z,994.16
2023-03-27T01:25:56.633Z,994.16
2023-03-27T01:26:06.861Z,994.16
2023-03-27T01:26:17.095Z,994.17
2023-03-27T01:26:35.971Z,994.17
2023-03-27T01:26:38.849Z,994.17
2023-03-27T01:26:48.230Z,994.17
2023-03-27T01:26:58.561Z,994.15
2023-03-27T01:27:08.752Z,994.16
2023-03-27T01:27:19.026Z,994.16
2023-03-27T01:27:29.261Z,994.17
2023-03-27T01:27:39.493Z,994.17
2023-03-27T01:27:49.711Z,994.17
2023-03-27T01:27:59.954Z,994.18
2023-03-27T01:28:10.187Z,994.18
2023-03-27T01:28:20.417Z,994.17
2023-03-27T01:28:30.662Z,994.18
2023-03-27T01:28:40.891Z,994.18
2023-03-27T01:28:51.679Z,994.19
2023-03-27T01:29:01.488Z,994.18
2023-03-27T01:29:11.736Z,994.19
2023-03-27T01:29:21.968Z,994.20
2023-03-27T01:29:32.204Z,994.20
2023-03-27T01:29:42.455Z,994.20
2023-03-27T01:29:52.694Z,994.21
2023-03-27T01:30:02.932Z,994.20
2023-03-27T01:30:13.166Z,994.21
2023-03-27T01:30:23.395Z,994.21
2023-03-27T01:30:33.633Z,994.22
2023-03-27T01:30:43.868Z,994.23
2023-03-27T01:30:54.480Z,994.23
2023-03-27T01:31:04.415Z,994.24
2023-03-27T01:31:14.643Z,994.24
2023-03-27T01:31:24.930Z,994.26
2023-03-27T01:31:35.203Z,994.25
2023-03-27T01:31:45.504Z,994.25
2023-03-27T01:31:55.804Z,994.25
2023-03-27T01:32:06.046Z,994.26
2023-03-27T01:32:16.269Z,994.27
2023-03-27T01:32:26.515Z,994.27
2023-03-27T01:32:36.784Z,994.28
2023-03-27T01:32:47.082Z,994.28
2023-03-27T01:32:57.336Z,994.30
2023-03-27T01:33:09.346Z,994.29
2023-03-27T01:33:17.830Z,994.29
2023-03-27T01:33:28.066Z,994.30
2023-03-27T01:33:38.304Z,994.32
2023-03-27T01:33:48.548Z,994.31
2023-03-27T01:33:58.835Z,994.32
2023-03-27T01:34:19.433Z,994.33
2023-03-27T01:34:29.684Z,994.32
2023-03-27T01:34:39.923Z,994.33
2023-03-27T01:35:01.456Z,994.33
2023-03-27T01:35:02.469Z,994.33
2023-03-27T01:35:11.016Z,994.33
2023-03-27T01:35:21.285Z,994.32
2023-03-27T01:35:31.489Z,994.33
2023-03-27T01:35:41.741Z,994.32
2023-03-27T01:35:52.024Z,994.35
2023-03-27T01:36:02.392Z,994.33
2023-03-27T01:36:12.654Z,994.32
2023-03-27T01:36:22.907Z,994.33
2023-03-27T01:36:33.130Z,994.34
2023-03-27T01:36:43.374Z,994.33
2023-03-27T01:36:53.596Z,994.34
2023-03-27T01:37:03.832Z,994.33
2023-03-27T01:37:14.096Z,994.33
2023-03-27T01:37:24.312Z,994.33
2023-03-27T01:37:34.547Z,994.33
2023-03-27T01:37:44.788Z,994.34
2023-03-27T01:37:55.021Z,994.34
2023-03-27T01:38:05.263Z,994.34
2023-03-27T01:38:15.489Z,994.32
2023-03-27T01:38:25.727Z,994.33
2023-03-27T01:38:35.966Z,994.34
2023-03-27T01:38:46.200Z,994.34
2023-03-27T01:38:56.435Z,994.35
2023-03-27T01:39:06.705Z,994.34
2023-03-27T01:39:16.916Z,994.34
2023-03-27T01:39:27.144Z,994.34
2023-03-27T01:39:37.377Z,994.33
2023-03-27T01:39:47.638Z,994.34
2023-03-27T01:39:58.724Z,994.34
2023-03-27T01:40:08.104Z,994.34
2023-03-27T01:40:18.342Z,994.35
2023-03-27T01:40:28.580Z,994.33
2023-03-27T01:40:38.822Z,994.33
2023-03-27T01:40:49.040Z,994.33
2023-03-27T01:40:59.274Z,994.34
2023-03-27T01:41:09.510Z,994.34
2023-03-27T01:41:19.744Z,994.33
2023-03-27T01:41:29.983Z,994.33
2023-03-27T01:41:40.257Z,994.33
2023-03-27T01:41:50.508Z,994.33
2023-03-27T01:42:00.807Z,994.33
2023-03-27T01:42:11.015Z,994.33
2023-03-27T01:42:21.253Z,994.33
2023-03-27T01:42:31.499Z,994.33
2023-03-27T01:42:41.716Z,994.34
2023-03-27T01:42:51.956Z,994.33
2023-03-27T01:43:02.187Z,994.34
2023-03-27T01:43:12.476Z,994.34
2023-03-27T01:43:22.728Z,994.36
2023-03-27T01:43:32.949Z,994.35
2023-03-27T01:43:43.177Z,994.36
2023-03-27T01:43:53.405Z,994.36
2023-03-27T01:44:03.728Z,994.38
2023-03-27T01:44:14.725Z,994.37
2023-03-27T01:44:24.311Z,994.38
2023-03-27T01:44:42.982Z,994.38
2023-03-27T01:44:47.084Z,994.39
2023-03-27T01:44:55.397Z,994.39
2023-03-27T01:45:05.631Z,994.39
2023-03-27T01:45:15.858Z,994.39
2023-03-27T01:45:26.093Z,994.40
2023-03-27T01:45:36.328Z,994.40
2023-03-27T01:45:56.962Z,994.40
2023-03-27T01:46:07.198Z,994.40
2023-03-27T01:46:17.477Z,994.41
2023-03-27T01:46:27.730Z,994.41
2023-03-27T01:46:37.998Z,994.41
2023-03-27T01:46:48.333Z,994.42
2023-03-27T01:46:58.642Z,994.41
2023-03-27T01:47:08.853Z,994.42
2023-03-27T01:47:19.102Z,994.43
2023-03-27T01:47:29.351Z,994.43
2023-03-27T01:47:39.571Z,994.43
2023-03-27T01:47:49.860Z,994.43
2023-03-27T01:48:00.306Z,994.43
2023-03-27T01:48:10.366Z,994.42
2023-03-27T01:48:20.617Z,994.43
2023-03-27T01:48:30.847Z,994.43
2023-03-27T01:48:41.091Z,994.45
2023-03-27T01:48:51.321Z,994.42
2023-03-27T01:49:01.557Z,994.45
2023-03-27T01:49:11.806Z,994.45
2023-03-27T01:49:22.092Z,994.45
2023-03-27T01:49:32.363Z,994.44
2023-03-27T01:49:42.575Z,994.44
2023-03-27T01:49:53.668Z,994.45
2023-03-27T01:50:03.042Z,994.45
2023-03-27T01:50:13.280Z,994.46
2023-03-27T01:50:23.529Z,994.44
2023-03-27T01:50:33.756Z,994.45
2023-03-27T01:50:44.000Z,994.45
2023-03-27T01:50:54.739Z,994.45
2023-03-27T01:51:04.563Z,994.46
2023-03-27T01:51:14.795Z,994.47
2023-03-27T01:51:25.034Z,994.45
2023-03-27T01:51:35.267Z,994.47
2023-03-27T01:51:45.503Z,994.47
2023-03-27T01:51:55.739Z,994.47
2023-03-27T01:52:05.976Z,994.47
2023-03-27T01:52:16.213Z,994.47
2023-03-27T01:52:26.455Z,994.47
2023-03-27T01:52:36.686Z,994.47
2023-03-27T01:52:46.922Z,994.47
2023-03-27T01:52:57.156Z,994.47
2023-03-27T01:53:07.393Z,994.47
2023-03-27T01:53:17.633Z,994.47
2023-03-27T01:53:27.874Z,994.47
2023-03-27T01:53:38.109Z,994.47
2023-03-27T01:53:48.338Z,994.47
2023-03-27T01:53:58.586Z,994.48
2023-03-27T01:54:09.764Z,994.47
2023-03-27T01:54:19.113Z,994.48
2023-03-27T01:54:29.378Z,994.47
2023-03-27T01:54:39.641Z,994.47
2023-03-27T01:54:49.842Z,994.47
2023-03-27T01:55:00.119Z,994.46
2023-03-27T01:55:10.327Z,994.47
2023-03-27T01:55:20.562Z,994.47
2023-03-27T01:55:30.803Z,994.48
2023-03-27T01:55:41.036Z,994.46
2023-03-27T01:55:51.269Z,994.47
2023-03-27T01:56:01.517Z,994.47
2023-03-27T01:56:11.753Z,994.46
2023-03-27T01:56:22.001Z,994.47
2023-03-27T01:56:32.279Z,994.47
2023-03-27T01:56:42.541Z,994.48
2023-03-27T01:56:52.804Z,994.48
2023-03-27T01:57:03.053Z,994.48
2023-03-27T01:57:13.361Z,994.48
2023-03-27T01:57:23.585Z,994.48
2023-03-27T01:57:35.526Z,994.48
2023-03-27T01:57:49.418Z,994.49
2023-03-27T01:57:55.660Z,994.49
2023-03-27T01:58:05.040Z,994.49
2023-03-27T01:58:15.279Z,994.49
2023-03-27T01:58:25.508Z,994.50
2023-03-27T01:58:35.754Z,994.49
2023-03-27T01:58:45.981Z,994.50
2023-03-27T01:58:56.219Z,994.49
2023-03-27T01:59:06.486Z,994.49
2023-03-27T01:59:16.715Z,994.50
2023-03-27T01:59:26.940Z,994.50
2023-03-27T01:59:37.177Z,994.51
2023-03-27T01:59:47.466Z,994.51
2023-03-27T01:59:57.718Z,994.51
2023-03-27T02:00:18.611Z,994.52
2023-03-27T02:00:19.777Z,994.52
2023-03-27T02:00:51.460Z,994.54
2023-03-27T02:00:52.006Z,994.53
2023-03-27T02:00:52.213Z,994.54
2023-03-27T02:00:59.730Z,994.54
2023-03-27T02:01:10.365Z,994.55
2023-03-27T02:01:20.353Z,994.56
2023-03-27T02:01:30.740Z,994.55
2023-03-27T02:01:41.067Z,994.56
2023-03-27T02:01:51.360Z,994.57
2023-03-27T02:02:01.585Z,994.58
2023-03-27T02:02:11.863Z,994.57
2023-03-27T02:02:22.136Z,994.58
2023-03-27T02:02:32.447Z,994.58
2023-03-27T02:02:42.697Z,994.58
2023-03-27T02:02:52.988Z,994.60
2023-03-27T02:03:03.299Z,994.60
2023-03-27T02:03:13.525Z,994.59
2023-03-27T02:03:24.692Z,994.60
2023-03-27T02:03:34.058Z,994.60
2023-03-27T02:03:44.297Z,994.60
2023-03-27T02:03:54.527Z,994.60
2023-03-27T02:04:04.784Z,994.60
2023-03-27T02:04:15.012Z,994.61
2023-03-27T02:04:25.269Z,994.61
2023-03-27T02:04:35.507Z,994.60
2023-03-27T02:04:45.794Z,994.60
2023-03-27T02:04:56.053Z,994.60
2023-03-27T02:05:06.394Z,994.60
2023-03-27T02:05:16.735Z,994.61
2023-03-27T02:05:27.007Z,994.62
2023-03-27T02:05:37.212Z,994.61
2023-03-27T02:05:47.475Z,994.60
2023-03-27T02:05:57.699Z,994.61
2023-03-27T02:06:07.935Z,994.61
2023-03-27T02:06:18.164Z,994.60
2023-03-27T02:06:28.470Z,994.61
2023-03-27T02:06:38.715Z,994.61
2023-03-27T02:06:48.952Z,994.61
2023-03-27T02:06:59.203Z,994.60
2023-03-27T02:07:09.472Z,994.60
2023-03-27T02:07:19.745Z,994.61
2023-03-27T02:07:29.985Z,994.60
2023-03-27T02:07:40.233Z,994.60
2023-03-27T02:07:50.463Z,994.60
2023-03-27T02:08:00.719Z,994.60
2023-03-27T02:08:12.842Z,994.59
2023-03-27T02:08:21.366Z,994.59